Time;durP1;ratioP1;P1;durP2;ratioP2;P2;SDS_P1;SDS_P2;PMS_P1;PMS_P2;Temp;Humidity;BMP_temperature;BMP_pressure;BME280_temperature;BME280_humidity;BME280_pressure;Samples;Min_cycle;Max_cycle;Signal;HPM_P1;HPM_P2
2022/02/19 00:00:59;;;;;;;13.43;2.13;;;6.40;99.90;;;;;;5032965;28;20049;-38
2022/02/19 00:03:24;;;;;;;12.70;1.63;;;6.40;99.90;;;;;;5032261;28;20029;-36
2022/02/19 00:05:50;;;;;;;13.95;2.42;;;6.30;99.90;;;;;;5017125;28;20022;-46
2022/02/19 00:08:15;;;;;;;15.38;2.13;;;6.30;99.90;;;;;;5013356;28;20034;-37
2022/02/19 00:10:42;;;;;;;8.23;2.15;;;6.30;99.90;;;;;;5013194;28;20104;-37
2022/02/19 00:13:09;;;;;;;19.13;2.63;;;6.20;99.90;;;;;;5014610;28;20044;-42
2022/02/19 00:15:35;;;;;;;12.30;1.63;;;6.20;99.90;;;;;;5022105;28;20474;-36
2022/02/19 00:18:01;;;;;;;11.48;1.60;;;6.30;99.90;;;;;;5022237;28;20030;-39
2022/02/19 00:20:26;;;;;;;9.45;1.98;;;6.30;99.90;;;;;;5019584;28;20374;-38
2022/02/19 00:22:52;;;;;;;14.95;2.35;;;6.20;99.90;;;;;;5028257;28;20021;-37
2022/02/19 00:25:19;;;;;;;13.30;1.90;;;6.30;99.90;;;;;;5020489;28;20096;-36
2022/02/19 00:27:45;;;;;;;8.27;1.67;;;6.20;99.90;;;;;;5022350;28;20026;-36
2022/02/19 00:30:12;;;;;;;16.13;1.85;;;6.30;99.90;;;;;;5026328;28;20498;-37
2022/02/19 00:32:37;;;;;;;7.47;1.88;;;6.30;99.90;;;;;;5032687;28;20037;-43
2022/02/19 00:35:04;;;;;;;13.15;2.08;;;6.30;99.90;;;;;;5024990;28;20033;-39
2022/02/19 00:37:30;;;;;;;17.25;1.85;;;6.30;99.90;;;;;;5023734;28;20493;-36
2022/02/19 00:39:56;;;;;;;6.43;1.35;;;6.30;99.90;;;;;;5026357;28;20032;-37
2022/02/19 00:42:22;;;;;;;5.07;0.85;;;6.30;99.90;;;;;;5027309;28;20041;-42
2022/02/19 00:44:48;;;;;;;11.13;1.65;;;6.30;99.90;;;;;;5028087;28;20026;-38
2022/02/19 00:47:14;;;;;;;6.15;1.27;;;6.30;99.90;;;;;;5031185;28;20044;-37
2022/02/19 00:49:40;;;;;;;13.35;1.13;;;6.30;99.90;;;;;;5026176;28;20510;-37
2022/02/19 00:52:06;;;;;;;16.73;1.55;;;6.30;99.90;;;;;;5032422;28;20478;-63
2022/02/19 00:54:32;;;;;;;13.15;1.75;;;6.30;99.90;;;;;;5026568;28;20109;-38
2022/02/19 00:57:17;;;;;;;12.77;1.17;;;6.30;99.90;;;;;;5028085;28;20112;-38
2022/02/19 00:59:42;;;;;;;13.20;1.70;;;6.30;99.90;;;;;;5030260;28;20534;-40
2022/02/19 01:02:08;;;;;;;4.93;0.73;;;6.30;99.90;;;;;;5035880;28;20096;-37
2022/02/19 01:04:33;;;;;;;8.70;1.13;;;6.30;99.90;;;;;;5030602;28;20470;-38
2022/02/19 01:06:59;;;;;;;6.50;0.98;;;6.20;99.90;;;;;;5030247;28;20029;-38
2022/02/19 01:09:26;;;;;;;6.68;1.23;;;6.20;99.90;;;;;;5027454;28;20544;-38
2022/02/19 01:11:53;;;;;;;12.10;1.42;;;6.20;99.90;;;;;;5019647;28;20052;-38
2022/02/19 01:14:18;;;;;;;9.55;2.58;;;6.10;99.90;;;;;;5034940;28;20116;-37
2022/02/19 01:16:44;;;;;;;12.90;1.73;;;6.10;99.90;;;;;;5035850;28;20113;-38
2022/02/19 01:19:09;;;;;;;10.95;2.42;;;6.10;99.90;;;;;;5030318;28;20032;-37
2022/02/19 01:21:35;;;;;;;4.95;1.17;;;6.10;99.90;;;;;;5020600;28;20394;-38
2022/02/19 01:24:00;;;;;;;12.35;1.70;;;6.10;99.90;;;;;;5036028;28;20494;-37
2022/02/19 01:26:28;;;;;;;5.40;1.67;;;6.20;99.90;;;;;;5035808;28;20120;-37
2022/02/19 01:28:53;;;;;;;13.80;1.20;;;6.10;99.90;;;;;;5033188;28;20033;-37
2022/02/19 01:31:19;;;;;;;4.60;1.15;;;6.10;99.90;;;;;;5026493;28;20401;-38
2022/02/19 01:33:45;;;;;;;4.28;0.70;;;6.20;99.90;;;;;;5034342;28;20034;-36
2022/02/19 01:36:10;;;;;;;8.20;1.70;;;6.10;99.90;;;;;;5035846;28;20028;-39
2022/02/19 01:38:36;;;;;;;8.30;1.85;;;6.10;99.90;;;;;;5036017;28;20029;-37
2022/02/19 01:41:01;;;;;;;9.05;1.15;;;6.00;99.90;;;;;;5034973;28;20028;-38
2022/02/19 01:43:27;;;;;;;9.20;1.35;;;6.10;99.90;;;;;;5021572;28;20029;-50
2022/02/19 01:45:53;;;;;;;11.85;1.08;;;6.10;99.90;;;;;;5035437;28;20022;-36
2022/02/19 01:48:19;;;;;;;8.63;1.17;;;6.20;99.90;;;;;;5035523;28;20029;-38
2022/02/19 01:50:45;;;;;;;9.13;1.52;;;6.20;99.90;;;;;;5028089;28;20485;-37
2022/02/19 01:53:11;;;;;;;9.13;1.20;;;6.20;99.90;;;;;;5035384;28;20029;-39
2022/02/19 01:55:37;;;;;;;8.38;0.90;;;6.20;99.90;;;;;;5021193;28;20445;-57
2022/02/19 01:58:05;;;;;;;9.98;1.25;;;6.10;99.90;;;;;;5028210;28;20044;-41
2022/02/19 02:00:31;;;;;;;6.47;1.50;;;6.20;99.90;;;;;;5015414;28;20062;-43
2022/02/19 02:02:57;;;;;;;8.77;1.73;;;6.20;99.90;;;;;;5030785;28;20056;-37
2022/02/19 02:05:24;;;;;;;5.07;1.40;;;6.20;99.90;;;;;;5028998;28;20164;-37
2022/02/19 02:07:50;;;;;;;4.50;0.98;;;6.10;99.90;;;;;;5024133;28;20029;-38
2022/02/19 02:10:15;;;;;;;5.15;1.02;;;6.10;99.90;;;;;;5022560;28;20037;-38
2022/02/19 02:12:41;;;;;;;16.27;2.58;;;6.20;99.90;;;;;;5018977;28;20037;-38
2022/02/19 02:15:28;;;;;;;11.63;1.80;;;6.20;99.90;;;;;;5016849;28;20113;-39
2022/02/19 02:17:57;;;;;;;10.65;1.05;;;6.20;99.90;;;;;;5030310;28;20033;-39
2022/02/19 02:20:23;;;;;;;12.00;1.42;;;6.20;99.90;;;;;;5016379;28;20021;-36
2022/02/19 02:22:48;;;;;;;11.27;1.58;;;6.20;99.90;;;;;;5016194;28;20021;-36
2022/02/19 02:25:15;;;;;;;6.80;0.98;;;6.20;99.90;;;;;;5029570;28;20331;-36
2022/02/19 02:27:40;;;;;;;19.98;2.42;;;6.10;99.90;;;;;;5016375;28;20500;-39
2022/02/19 02:30:07;;;;;;;2.67;0.65;;;6.20;99.90;;;;;;5023352;28;20108;-37
2022/02/19 02:32:33;;;;;;;17.88;1.42;;;6.20;99.90;;;;;;5026122;28;20050;-37
2022/02/19 02:34:58;;;;;;;13.13;1.30;;;6.20;99.90;;;;;;5023346;28;20430;-36
2022/02/19 02:37:25;;;;;;;7.82;0.90;;;6.10;99.90;;;;;;5033310;28;20397;-39
2022/02/19 02:39:51;;;;;;;13.00;1.00;;;6.00;99.90;;;;;;5019172;28;20030;-39
2022/02/19 02:42:19;;;;;;;8.73;1.40;;;6.00;99.90;;;;;;5014969;28;20030;-38
2022/02/19 02:44:45;;;;;;;8.00;2.08;;;6.00;99.90;;;;;;5016218;28;20088;-37
2022/02/19 02:47:11;;;;;;;9.73;1.90;;;6.00;99.90;;;;;;5046438;28;20418;-37
2022/02/19 02:49:37;;;;;;;13.52;1.60;;;6.00;99.90;;;;;;5028027;28;20017;-40
2022/02/19 02:52:04;;;;;;;10.02;1.05;;;6.00;99.90;;;;;;5032503;28;20367;-37
2022/02/19 02:54:30;;;;;;;11.50;1.27;;;6.00;99.90;;;;;;5033574;28;20482;-37
2022/02/19 02:56:56;;;;;;;17.98;1.50;;;6.10;99.90;;;;;;5031866;28;20036;-36
2022/02/19 02:59:21;;;;;;;5.65;2.05;;;6.10;99.90;;;;;;5028510;28;20033;-39
2022/02/19 03:01:47;;;;;;;1.88;0.88;;;6.00;99.90;;;;;;5031723;28;20075;-37
2022/02/19 03:04:13;;;;;;;12.60;1.50;;;6.10;99.90;;;;;;5033722;28;20026;-42
2022/02/19 03:06:38;;;;;;;9.13;1.65;;;6.10;99.90;;;;;;5032955;28;20099;-36
2022/02/19 03:09:04;;;;;;;13.13;1.27;;;6.10;99.90;;;;;;5032193;28;20045;-37
2022/02/19 03:11:29;;;;;;;8.95;1.63;;;6.10;99.90;;;;;;5033717;28;20045;-37
2022/02/19 03:13:55;;;;;;;14.35;1.45;;;6.00;99.90;;;;;;5033219;28;20481;-37
2022/02/19 03:16:21;;;;;;;13.95;2.13;;;6.00;99.90;;;;;;5024446;28;20490;-36
2022/02/19 03:18:46;;;;;;;10.85;1.35;;;6.00;99.90;;;;;;5014724;28;20600;-38
2022/02/19 03:21:12;;;;;;;11.63;1.55;;;6.00;99.90;;;;;;5030388;28;20022;-58
2022/02/19 03:23:37;;;;;;;8.90;1.83;;;6.00;99.90;;;;;;5024427;28;20026;-37
2022/02/19 03:26:07;;;;;;;15.05;1.55;;;5.90;99.90;;;;;;5024984;28;20062;-36
2022/02/19 03:28:33;;;;;;;14.25;1.73;;;6.00;99.90;;;;;;5014891;28;20028;-37
2022/02/19 03:30:59;;;;;;;6.15;1.42;;;6.00;99.90;;;;;;5014751;28;20025;-36
2022/02/19 03:33:24;;;;;;;12.80;1.80;;;6.00;99.90;;;;;;5022068;28;20409;-37
2022/02/19 03:35:50;;;;;;;21.08;2.40;;;6.00;99.90;;;;;;5025036;28;20029;-36
2022/02/19 03:38:16;;;;;;;11.05;1.50;;;6.10;99.90;;;;;;5030342;28;20032;-37
2022/02/19 03:40:41;;;;;;;7.53;1.23;;;6.00;99.90;;;;;;5033006;28;20124;-37
2022/02/19 03:43:07;;;;;;;10.93;1.60;;;6.00;99.90;;;;;;5025797;28;20390;-37
2022/02/19 03:45:35;;;;;;;6.53;1.35;;;6.00;99.90;;;;;;5023032;28;20029;-37
2022/02/19 03:48:01;;;;;;;;;;;6.00;99.90;;;;;;5032434;28;20025;-37
2022/02/19 03:50:27;;;;;;;8.70;0.95;;;6.00;99.90;;;;;;5031738;28;20504;-35
2022/02/19 03:52:52;;;;;;;6.97;1.35;;;6.00;99.90;;;;;;5026090;28;20040;-37
2022/02/19 03:55:18;;;;;;;9.32;1.10;;;5.90;99.90;;;;;;5025159;28;20120;-37
2022/02/19 03:57:44;;;;;;;11.70;1.35;;;6.00;99.90;;;;;;5032716;28;20021;-36
2022/02/19 04:00:13;;;;;;;21.02;3.03;;;6.00;99.90;;;;;;5032738;28;20025;-39
2022/02/19 04:02:43;;;;;;;13.98;1.65;;;6.00;99.90;;;;;;5031543;28;20041;-38
2022/02/19 04:05:10;;;;;;;15.88;1.38;;;6.00;99.90;;;;;;5029024;28;20025;-37
2022/02/19 04:07:36;;;;;;;5.30;1.17;;;6.00;99.90;;;;;;5032811;28;20033;-37
2022/02/19 04:10:02;;;;;;;16.08;1.88;;;6.00;99.90;;;;;;5016274;28;20060;-48
2022/02/19 04:12:28;;;;;;;8.82;1.67;;;6.00;99.90;;;;;;5020955;28;20018;-36
2022/02/19 04:14:54;;;;;;;17.35;3.10;;;6.00;99.90;;;;;;5024041;28;20036;-37
2022/02/19 04:17:21;;;;;;;14.27;1.33;;;6.00;99.90;;;;;;5032105;28;20034;-37
2022/02/19 04:19:50;;;;;;;10.70;1.73;;;6.00;99.90;;;;;;5025993;28;20526;-38
2022/02/19 04:22:25;;;;;;;7.47;1.35;;;6.00;99.90;;;;;;5021119;28;20030;-37
2022/02/19 04:24:51;;;;;;;12.38;2.13;;;6.00;99.90;;;;;;5025204;28;20038;-37
2022/02/19 04:27:18;;;;;;;8.48;1.42;;;6.00;99.90;;;;;;5020084;28;20037;-38
2022/02/19 04:29:43;;;;;;;14.73;1.80;;;6.10;99.90;;;;;;5024938;28;20363;-39
2022/02/19 04:32:09;;;;;;;15.35;1.95;;;6.00;99.90;;;;;;5018312;28;20091;-35
2022/02/19 04:34:36;;;;;;;10.40;1.23;;;6.00;99.90;;;;;;5028644;28;20061;-38
2022/02/19 04:37:02;;;;;;;6.25;0.88;;;6.00;99.90;;;;;;5024255;28;20022;-37
2022/02/19 04:39:28;;;;;;;4.95;0.68;;;6.00;99.90;;;;;;5020588;28;20103;-38
2022/02/19 04:41:53;;;;;;;4.03;1.00;;;6.00;99.90;;;;;;5013686;28;20069;-37
2022/02/19 04:44:19;;;;;;;8.60;1.20;;;6.00;99.90;;;;;;5031118;28;20037;-37
2022/02/19 04:46:44;;;;;;;14.27;0.88;;;6.00;99.90;;;;;;5028967;28;20390;-37
2022/02/19 04:49:10;;;;;;;5.95;1.23;;;6.00;99.90;;;;;;5023270;28;20030;-37
2022/02/19 04:51:37;;;;;;;8.95;1.00;;;6.10;99.90;;;;;;5025610;28;20084;-36
2022/02/19 04:54:02;;;;;;;8.00;1.30;;;6.10;99.90;;;;;;5030186;28;20033;-38
2022/02/19 04:56:28;;;;;;;11.98;1.65;;;6.10;99.90;;;;;;5032486;28;20125;-43
2022/02/19 04:58:53;;;;;;;9.13;0.98;;;6.00;99.90;;;;;;5031586;28;20025;-40
2022/02/19 05:01:19;;;;;;;14.80;2.72;;;6.00;99.90;;;;;;5023371;28;20537;-39
2022/02/19 05:03:45;;;;;;;9.00;1.52;;;6.00;99.90;;;;;;5027820;28;20036;-42
2022/02/19 05:06:13;;;;;;;9.90;1.50;;;6.00;99.90;;;;;;5029564;28;20040;-39
2022/02/19 05:08:40;;;;;;;10.13;1.88;;;5.90;99.90;;;;;;5031740;28;20417;-36
2022/02/19 05:11:06;;;;;;;7.60;1.20;;;5.90;99.90;;;;;;5031800;28;20030;-37
2022/02/19 05:13:31;;;;;;;10.77;1.85;;;5.90;99.90;;;;;;5031860;28;20057;-36
2022/02/19 05:15:57;;;;;;;9.00;2.22;;;5.90;99.90;;;;;;5031087;28;20374;-37
2022/02/19 05:18:22;;;;;;;6.75;0.90;;;5.90;99.90;;;;;;5032007;28;20104;-37
2022/02/19 05:20:48;;;;;;;7.28;1.27;;;5.90;99.90;;;;;;5025832;28;20029;-37
2022/02/19 05:23:14;;;;;;;7.05;0.93;;;5.80;99.90;;;;;;5012559;28;20026;-36
2022/02/19 05:25:41;;;;;;;6.47;1.55;;;5.90;99.90;;;;;;5028678;28;20046;-37
2022/02/19 05:28:07;;;;;;;5.18;0.98;;;6.00;99.90;;;;;;5031807;28;20025;-38
2022/02/19 05:30:34;;;;;;;10.30;2.08;;;6.00;99.90;;;;;;5019540;28;20049;-36
2022/02/19 05:33:00;;;;;;;8.85;1.75;;;5.90;99.90;;;;;;5032109;28;20291;-37
2022/02/19 05:35:25;;;;;;;10.45;1.33;;;5.90;99.90;;;;;;5021649;28;20026;-44
2022/02/19 05:37:51;;;;;;;14.85;1.77;;;5.90;99.90;;;;;;5023177;28;20026;-37
2022/02/19 05:40:16;;;;;;;11.60;1.70;;;5.90;99.90;;;;;;5027978;28;20057;-38
2022/02/19 05:42:42;;;;;;;9.70;1.20;;;5.90;99.90;;;;;;5015958;28;20109;-39
2022/02/19 05:45:08;;;;;;;15.43;2.08;;;5.80;99.90;;;;;;5031668;28;20478;-59
2022/02/19 05:47:33;;;;;;;6.10;1.77;;;5.80;99.90;;;;;;5034832;28;20515;-37
2022/02/19 05:49:59;;;;;;;9.80;1.20;;;5.80;99.90;;;;;;5025791;28;20126;-37
2022/02/19 05:52:25;;;;;;;9.75;1.23;;;5.80;99.90;;;;;;5016074;28;20386;-36
2022/02/19 05:54:54;;;;;;;13.32;1.75;;;5.80;99.90;;;;;;5014963;28;20049;-42
2022/02/19 05:57:20;;;;;;;4.22;0.88;;;5.80;99.90;;;;;;5022977;28;20056;-37
2022/02/19 05:59:46;;;;;;;15.55;1.92;;;5.90;99.90;;;;;;5024090;28;20493;-36
2022/02/19 06:02:12;;;;;;;12.50;1.77;;;5.90;99.90;;;;;;5020161;28;20030;-39
2022/02/19 06:04:37;;;;;;;13.90;1.35;;;5.90;99.90;;;;;;5032628;28;20029;-45
2022/02/19 06:07:03;;;;;;;9.07;1.85;;;5.90;99.90;;;;;;5033434;28;20493;-36
2022/02/19 06:09:29;;;;;;;7.50;1.08;;;6.00;99.90;;;;;;5035449;28;20030;-37
2022/02/19 06:11:54;;;;;;;8.45;1.90;;;6.00;99.90;;;;;;5027185;28;20029;-35
2022/02/19 06:14:20;;;;;;;7.45;1.08;;;6.10;99.90;;;;;;5018093;28;20042;-36
2022/02/19 06:16:46;;;;;;;5.40;1.00;;;6.00;99.90;;;;;;5015863;28;20025;-37
2022/02/19 06:19:11;;;;;;;11.68;1.20;;;6.00;99.90;;;;;;5015244;28;20474;-36
2022/02/19 06:21:37;;;;;;;5.85;0.80;;;6.00;99.90;;;;;;5033350;28;20084;-37
2022/02/19 06:24:03;;;;;;;10.43;1.30;;;6.00;99.90;;;;;;5034054;28;20025;-36
2022/02/19 06:26:29;;;;;;;5.00;0.80;;;6.00;99.90;;;;;;5030000;28;20474;-38
2022/02/19 06:28:54;;;;;;;5.80;1.10;;;6.00;99.90;;;;;;5016112;28;20030;-46
2022/02/19 06:31:20;;;;;;;9.80;1.10;;;6.00;99.90;;;;;;5015330;28;20030;-37
2022/02/19 06:33:45;;;;;;;8.05;0.93;;;5.90;99.90;;;;;;5018445;28;20026;-37
2022/02/19 06:36:11;;;;;;;10.00;1.58;;;5.90;99.90;;;;;;5020528;28;20466;-37
2022/02/19 06:38:39;;;;;;;20.95;1.77;;;5.90;99.90;;;;;;5030260;28;20116;-37
2022/02/19 06:41:05;;;;;;;;;;;6.00;99.90;;;;;;5015757;28;20493;-36
2022/02/19 06:43:31;;;;;;;5.50;0.98;;;6.00;99.90;;;;;;5020009;28;20043;-37
2022/02/19 06:45:56;;;;;;;11.45;1.75;;;6.00;99.90;;;;;;5026604;28;20522;-37
2022/02/19 06:48:22;;;;;;;5.78;1.13;;;5.90;99.90;;;;;;5033317;28;20418;-36
2022/02/19 06:50:48;;;;;;;7.53;1.65;;;5.90;99.90;;;;;;5023317;28;20025;-37
2022/02/19 06:53:13;;;;;;;12.35;0.90;;;6.00;99.90;;;;;;5032862;28;20032;-38
2022/02/19 06:55:39;;;;;;;4.40;1.23;;;6.00;99.90;;;;;;5031879;28;20032;-38
2022/02/19 06:58:04;;;;;;;3.83;1.00;;;6.00;99.90;;;;;;5027649;28;20022;-34
2022/02/19 07:00:30;;;;;;;8.45;1.15;;;6.00;99.90;;;;;;5018803;28;20057;-36
2022/02/19 07:02:55;;;;;;;8.27;1.88;;;6.00;99.90;;;;;;5024078;28;20525;-37
2022/02/19 07:05:21;;;;;;;6.95;1.48;;;6.00;99.90;;;;;;5024705;28;20083;-37
2022/02/19 07:07:47;;;;;;;6.55;1.88;;;6.00;99.90;;;;;;5029332;28;20117;-37
2022/02/19 07:10:13;;;;;;;11.55;1.15;;;5.90;99.90;;;;;;5026483;28;20478;-37
2022/02/19 07:12:38;;;;;;;10.95;1.42;;;6.00;99.90;;;;;;5022802;28;20105;-38
2022/02/19 07:15:11;;;;;;;14.40;1.90;;;6.00;99.90;;;;;;5021581;28;20036;-37
2022/02/19 07:17:50;;;;;;;6.70;1.20;;;6.00;99.90;;;;;;5022376;28;20036;-37
2022/02/19 07:20:17;;;;;;;11.15;1.35;;;6.00;99.90;;;;;;5018928;28;20053;-35
2022/02/19 07:22:43;;;;;;;5.20;0.50;;;6.00;99.90;;;;;;5015100;28;20080;-37
2022/02/19 07:25:10;;;;;;;10.85;1.73;;;6.00;99.90;;;;;;5024196;28;20292;-36
2022/02/19 07:27:40;;;;;;;6.22;1.50;;;6.10;99.90;;;;;;5027624;28;20041;-38
2022/02/19 07:30:12;;;;;;;4.40;0.82;;;6.10;99.90;;;;;;5020820;28;20034;-37
2022/02/19 07:32:38;;;;;;;5.03;1.08;;;6.00;99.90;;;;;;5021438;28;20038;-37
2022/02/19 07:35:07;;;;;;;2.70;0.93;;;6.00;99.90;;;;;;5019992;28;20124;-36
2022/02/19 07:37:32;;;;;;;;;;;6.00;99.90;;;;;;5018752;28;20025;-35
2022/02/19 07:39:58;;;;;;;12.60;1.35;;;6.10;99.90;;;;;;5033420;28;20413;-36
2022/02/19 07:42:23;;;;;;;8.55;1.15;;;6.10;99.90;;;;;;5024076;28;20367;-38
2022/02/19 07:44:51;;;;;;;6.43;1.05;;;6.20;99.90;;;;;;5016599;28;20036;-37
2022/02/19 07:47:22;;;;;;;13.30;1.45;;;6.30;99.90;;;;;;5019663;28;20068;-37
2022/02/19 07:58:18;;;;;;;10.57;1.20;;;6.30;99.90;;;;;;5028100;28;20105;-36
2022/02/19 08:00:48;;;;;;;10.27;1.23;;;6.30;99.90;;;;;;5032099;28;20033;-38
2022/02/19 08:03:15;;;;;;;5.32;1.02;;;6.30;99.90;;;;;;5032571;28;20037;-36
2022/02/19 08:05:42;;;;;;;4.72;1.25;;;6.30;99.90;;;;;;5032476;28;20040;-36
2022/02/19 08:08:07;;;;;;;7.68;1.48;;;6.30;99.90;;;;;;5032975;28;20037;-37
2022/02/19 08:10:35;;;;;;;8.57;1.40;;;6.30;99.90;;;;;;5032918;28;20026;-37
2022/02/19 08:13:02;;;;;;;6.47;0.73;;;6.40;99.90;;;;;;5030576;28;20025;-39
2022/02/19 08:15:28;;;;;;;12.40;1.02;;;6.40;99.90;;;;;;5029872;28;20458;-36
2022/02/19 08:17:53;;;;;;;8.32;1.77;;;6.50;99.90;;;;;;5024796;28;20079;-40
2022/02/19 08:20:19;;;;;;;13.88;1.50;;;6.70;99.90;;;;;;5031886;28;20026;-37
2022/02/19 08:22:44;;;;;;;16.23;1.65;;;6.60;99.90;;;;;;5030847;28;20178;-37
2022/02/19 08:25:10;;;;;;;22.30;3.17;;;6.50;99.90;;;;;;5032183;28;20056;-38
2022/02/19 08:27:39;;;;;;;5.85;1.25;;;6.40;99.90;;;;;;5030635;28;20504;-38
2022/02/19 08:32:51;;;;;;;7.57;1.20;;;6.50;99.90;;;;;;5024421;28;20110;-37
2022/02/19 08:35:16;;;;;;;11.80;1.27;;;6.60;99.90;;;;;;5030446;28;20029;-38
2022/02/19 08:37:42;;;;;;;8.82;1.50;;;6.60;99.90;;;;;;5028193;28;20029;-38
2022/02/19 08:40:10;;;;;;;9.88;1.77;;;6.60;99.90;;;;;;5027854;28;20022;-40
2022/02/19 08:42:37;;;;;;;;;;;6.70;99.90;;;;;;5013996;28;20109;-36
2022/02/19 08:45:04;;;;;;;12.57;1.42;;;6.80;99.90;;;;;;5019345;28;20007;-53
2022/02/19 08:47:30;;;;;;;2.20;1.05;;;6.80;99.90;;;;;;5023721;28;20104;-38
2022/02/19 08:49:56;;;;;;;11.82;1.92;;;7.00;99.90;;;;;;5019985;28;20041;-36
2022/02/19 08:52:22;;;;;;;11.32;1.17;;;7.00;99.90;;;;;;5028306;28;20026;-38
2022/02/19 08:54:47;;;;;;;3.63;0.90;;;6.80;99.90;;;;;;5025902;28;20033;-49
2022/02/19 08:57:13;;;;;;;10.65;1.55;;;6.80;99.90;;;;;;5019032;28;20048;-37
2022/02/19 08:59:39;;;;;;;9.10;0.93;;;7.00;99.90;;;;;;5027325;28;20026;-35
2022/02/19 09:02:04;;;;;;;3.88;1.00;;;7.10;99.90;;;;;;5028973;28;20105;-36
2022/02/19 09:04:30;;;;;;;13.75;1.88;;;7.30;99.90;;;;;;5014439;28;20037;-39
2022/02/19 09:06:55;;;;;;;6.20;0.93;;;7.30;99.90;;;;;;5027645;28;20056;-37
2022/02/19 09:09:21;;;;;;;16.38;1.65;;;7.30;99.90;;;;;;5029897;28;20072;-37
2022/02/19 09:11:47;;;;;;;6.53;1.20;;;7.30;99.90;;;;;;5028669;28;20053;-36
2022/02/19 09:14:12;;;;;;;4.85;1.00;;;7.30;99.90;;;;;;5034094;28;20132;-37
2022/02/19 09:16:38;;;;;;;13.73;2.15;;;7.30;99.90;;;;;;5034758;28;20066;-39
2022/02/19 09:19:05;;;;;;;6.80;0.93;;;7.40;99.90;;;;;;5028342;28;20025;-44
2022/02/19 09:21:32;;;;;;;9.20;1.35;;;7.30;99.90;;;;;;5033518;28;20037;-38
2022/02/19 09:23:58;;;;;;;11.90;1.23;;;7.40;99.90;;;;;;5024296;28;20152;-37
2022/02/19 09:26:24;;;;;;;7.85;1.30;;;7.40;99.90;;;;;;5020245;28;20387;-48
2022/02/19 09:28:50;;;;;;;11.95;1.20;;;7.40;99.90;;;;;;5016771;28;20172;-36
2022/02/19 09:31:16;;;;;;;11.05;1.00;;;7.50;99.90;;;;;;5025299;28;20037;-37
2022/02/19 09:33:42;;;;;;;10.85;1.58;;;7.50;99.90;;;;;;5024666;28;20029;-38
2022/02/19 09:36:09;;;;;;;10.32;2.30;;;7.40;99.90;;;;;;5025624;28;20026;-38
2022/02/19 09:38:34;;;;;;;13.70;1.75;;;7.40;99.90;;;;;;5033332;28;20034;-38
2022/02/19 09:41:02;;;;;;;7.60;1.10;;;7.50;99.90;;;;;;5033422;28;20044;-39
2022/02/19 09:43:28;;;;;;;12.38;1.10;;;7.60;99.90;;;;;;5020144;28;20022;-39
2022/02/19 09:45:54;;;;;;;14.05;2.60;;;7.60;99.90;;;;;;5021736;28;20087;-37
2022/02/19 09:48:21;;;;;;;8.52;1.10;;;7.60;99.90;;;;;;5027150;28;20354;-38
2022/02/19 09:50:51;;;;;;;7.13;1.15;;;7.50;99.90;;;;;;5027429;28;20088;-38
2022/02/19 09:53:17;;;;;;;5.07;0.90;;;7.40;99.90;;;;;;5033788;28;20501;-39
2022/02/19 09:55:43;;;;;;;4.85;1.45;;;7.60;99.90;;;;;;5032563;28;20025;-36
2022/02/19 09:58:09;;;;;;;8.90;1.10;;;7.70;99.90;;;;;;5023557;28;20025;-35
2022/02/19 10:00:34;;;;;;;12.63;1.10;;;7.70;99.90;;;;;;5031791;28;20446;-37
2022/02/19 10:03:00;;;;;;;8.30;1.63;;;7.80;99.90;;;;;;5029773;28;20231;-37
2022/02/19 10:05:30;;;;;;;10.30;0.88;;;7.70;99.90;;;;;;5027313;28;20074;-37
2022/02/19 10:08:03;;;;;;;7.18;1.13;;;7.70;99.90;;;;;;5030359;28;20367;-37
2022/02/19 10:10:30;;;;;;;8.55;1.25;;;7.70;99.90;;;;;;5017835;28;20037;-36
2022/02/19 10:12:55;;;;;;;14.55;1.17;;;7.70;99.90;;;;;;5030609;28;20434;-39
2022/02/19 10:15:21;;;;;;;10.27;1.30;;;7.90;99.90;;;;;;5031312;28;20057;-49
2022/02/19 10:17:47;;;;;;;6.70;0.90;;;7.90;99.90;;;;;;5032872;28;20033;-41
2022/02/19 10:20:17;;;;;;;11.55;1.08;;;7.90;99.90;;;;;;5020187;28;20026;-36
2022/02/19 10:22:46;;;;;;;6.03;1.27;;;7.80;99.90;;;;;;5027719;28;20104;-37
2022/02/19 10:25:18;;;;;;;7.50;0.95;;;7.90;99.90;;;;;;5025480;28;20098;-36
2022/02/19 10:27:51;;;;;;;8.07;0.75;;;8.00;99.90;;;;;;5025744;28;20022;-36
2022/02/19 10:30:19;;;;;;;9.13;1.13;;;8.10;99.90;;;;;;5021088;28;20092;-38
2022/02/19 10:32:52;;;;;;;;;;;8.20;99.90;;;;;;5023740;28;20048;-37
2022/02/19 10:35:30;;;;;;;2.95;0.70;;;8.20;99.90;;;;;;5033434;28;20476;-37
2022/02/19 10:37:56;;;;;;;3.42;1.42;;;8.00;99.90;;;;;;5025746;28;20060;-36
2022/02/19 10:40:38;;;;;;;6.85;1.33;;;8.10;99.90;;;;;;5032398;28;20462;-38
2022/02/19 10:43:06;;;;;;;7.20;1.10;;;8.20;99.90;;;;;;5028108;28;20021;-37
2022/02/19 10:45:33;;;;;;;;;;;8.40;99.90;;;;;;5025568;28;20079;-36
2022/02/19 10:48:34;;;;;;;8.02;0.77;;;8.50;99.90;;;;;;5034334;28;19916;-37
2022/02/19 10:51:18;;;;;;;10.35;1.00;;;8.50;99.90;;;;;;5019941;28;20065;-38
2022/02/19 10:53:55;;;;;;;8.45;0.88;;;8.50;99.90;;;;;;5033474;28;20482;-37
2022/02/19 10:56:21;;;;;;;2.53;0.77;;;8.60;99.90;;;;;;5016346;28;20101;-37
2022/02/19 10:59:06;;;;;;;7.18;1.88;;;8.70;99.90;;;;;;5029607;28;20030;-37
2022/02/19 11:01:46;;;;;;;5.43;1.00;;;8.70;99.90;;;;;;5031849;28;20041;-36
2022/02/19 11:04:14;;;;;;;5.07;0.93;;;8.70;99.90;;;;;;5033061;28;20025;-58
2022/02/19 11:06:41;;;;;;;9.70;1.50;;;8.60;99.90;;;;;;5034250;28;20026;-37
2022/02/19 11:09:08;;;;;;;16.25;2.20;;;8.70;99.90;;;;;;5023839;28;20034;-40
2022/02/19 11:11:35;;;;;;;4.50;0.97;;;8.80;99.90;;;;;;5029849;28;20033;-38
2022/02/19 11:14:11;;;;;;;10.90;1.45;;;8.80;99.90;;;;;;5025655;28;20463;-38
2022/02/19 11:16:38;;;;;;;5.05;0.80;;;8.80;99.90;;;;;;5026484;28;20086;-38
2022/02/19 11:19:05;;;;;;;7.82;1.55;;;8.80;99.90;;;;;;5033694;28;20525;-39
2022/02/19 11:21:33;;;;;;;4.00;1.38;;;8.50;99.90;;;;;;5024634;28;20398;-38
2022/02/19 11:24:02;;;;;;;7.90;0.80;;;8.30;99.90;;;;;;5024875;28;20463;-37
2022/02/19 11:26:29;;;;;;;7.82;1.10;;;8.30;99.90;;;;;;5039730;28;20409;-36
2022/02/19 11:29:04;;;;;;;13.48;1.40;;;8.60;99.90;;;;;;5020143;28;20021;-39
2022/02/19 11:31:32;;;;;;;5.35;1.95;;;8.90;99.90;;;;;;5032152;28;20033;-37
2022/02/19 11:34:04;;;;;;;14.00;1.38;;;9.10;99.90;;;;;;5026001;28;20030;-38
2022/02/19 11:36:31;;;;;;;7.57;1.33;;;9.20;99.90;;;;;;5030173;28;20029;-37
2022/02/19 11:38:57;;;;;;;6.47;0.70;;;9.00;99.90;;;;;;5029458;28;20026;-37
2022/02/19 11:41:43;;;;;;;3.33;1.20;;;9.00;99.90;;;;;;5030858;28;20104;-37
2022/02/19 11:44:24;;;;;;;8.82;1.70;;;9.00;99.90;;;;;;5029922;28;20040;-38
2022/02/19 11:46:52;;;;;;;8.00;1.23;;;8.90;99.90;;;;;;5024744;28;20374;-38
2022/02/19 11:49:26;;;;;;;8.95;1.33;;;8.80;99.90;;;;;;5038836;28;20055;-37
2022/02/19 11:52:06;;;;;;;12.15;1.85;;;8.90;99.90;;;;;;5028233;28;20104;-38
2022/02/19 11:54:33;;;;;;;8.50;2.08;;;8.90;99.90;;;;;;5031948;28;20033;-37
2022/02/19 11:57:15;;;;;;;5.72;1.67;;;8.70;99.90;;;;;;5033076;28;20022;-38
2022/02/19 11:59:47;;;;;;;12.80;1.30;;;8.60;99.90;;;;;;5031301;28;20022;-38
2022/02/19 12:02:18;;;;;;;6.63;0.90;;;8.40;99.90;;;;;;5030797;28;20083;-37
2022/02/19 12:05:04;;;;;;;5.05;1.20;;;8.40;99.90;;;;;;5032337;28;20029;-38
2022/02/19 12:07:30;;;;;;;14.15;1.52;;;8.60;99.90;;;;;;5032744;28;20021;-37
2022/02/19 12:10:05;;;;;;;6.45;1.20;;;8.90;99.90;;;;;;5032655;28;20299;-38
2022/02/19 12:13:06;;;;;;;6.50;1.05;;;9.00;99.90;;;;;;5033095;28;20052;-37
2022/02/19 12:15:32;;;;;;;1.88;0.70;;;9.10;99.90;;;;;;5027835;28;20028;-37
2022/02/19 12:17:58;;;;;;;4.40;1.40;;;9.20;99.90;;;;;;5026337;28;20021;-37
2022/02/19 12:20:30;;;;;;;4.95;0.55;;;9.20;99.90;;;;;;5025956;28;20033;-39
2022/02/19 12:23:04;;;;;;;12.73;1.08;;;9.30;99.90;;;;;;5025052;28;20036;-38
2022/02/19 12:25:55;;;;;;;4.97;1.33;;;9.50;99.90;;;;;;5023348;28;20045;-38
2022/02/19 12:28:22;;;;;;;3.92;1.20;;;9.50;99.90;;;;;;5025277;28;20029;-37
2022/02/19 12:31:14;;;;;;;10.75;1.10;;;9.40;99.90;;;;;;5024074;28;20510;-38
2022/02/19 12:33:40;;;;;;;4.53;0.50;;;9.50;99.90;;;;;;5020849;28;20036;-39
2022/02/19 12:36:07;;;;;;;9.52;0.63;;;9.50;99.90;;;;;;5029225;28;20025;-36
2022/02/19 12:38:33;;;;;;;5.63;0.68;;;9.50;99.90;;;;;;5030410;28;20425;-39
2022/02/19 12:41:00;;;;;;;8.32;1.10;;;9.40;99.90;;;;;;5032460;28;20028;-38
2022/02/19 12:43:26;;;;;;;3.95;0.93;;;9.40;99.90;;;;;;5028265;28;20102;-37
2022/02/19 12:45:52;;;;;;;7.07;1.48;;;9.40;99.90;;;;;;5027923;28;20025;-39
2022/02/19 12:48:17;;;;;;;4.60;1.13;;;9.20;99.90;;;;;;5023438;28;20025;-37
2022/02/19 12:50:58;;;;;;;9.13;1.33;;;9.20;99.90;;;;;;5033752;28;20025;-40
2022/02/19 12:53:24;;;;;;;7.95;1.23;;;9.10;99.90;;;;;;5027110;28;20382;-39
2022/02/19 12:56:08;;;;;;;11.20;1.27;;;9.10;99.90;;;;;;5032206;28;20029;-37
2022/02/19 12:58:45;;;;;;;1.95;0.55;;;9.00;99.90;;;;;;5019885;28;20038;-39
2022/02/19 13:01:11;;;;;;;10.60;1.17;;;9.00;99.90;;;;;;5024284;28;20033;-37
2022/02/19 13:03:46;;;;;;;3.38;1.38;;;9.20;99.90;;;;;;5025440;28;20033;-43
2022/02/19 13:06:12;;;;;;;11.52;1.55;;;9.40;99.90;;;;;;5031811;28;20508;-37
2022/02/19 13:08:38;;;;;;;10.32;1.15;;;9.30;99.90;;;;;;5034362;28;20092;-38